sensor_id;sensor_type;location;lat;lon;timestamp;P1;durP1;ratioP1;P2;durP2;ratioP2
48203;SDS011;33994;50.998;5.864;2023-12-20T00:00:54;32.10;;;15.98;;
48203;SDS011;33994;50.998;5.864;2023-12-20T00:03:57;26.10;;;14.45;;
48203;SDS011;33994;50.998;5.864;2023-12-20T00:07:02;26.35;;;14.52;;
48203;SDS011;33994;50.998;5.864;2023-12-20T00:10:06;24.50;;;13.82;;
48203;SDS011;33994;50.998;5.864;2023-12-20T00:13:09;21.10;;;11.60;;
48203;SDS011;33994;50.998;5.864;2023-12-20T00:16:12;21.27;;;12.20;;
48203;SDS011;33994;50.998;5.864;2023-12-20T00:19:16;22.05;;;11.57;;
48203;SDS011;33994;50.998;5.864;2023-12-20T00:22:20;20.33;;;9.43;;
48203;SDS011;33994;50.998;5.864;2023-12-20T00:25:23;15.48;;;7.28;;
48203;SDS011;33994;50.998;5.864;2023-12-20T00:28:26;11.30;;;4.60;;
48203;SDS011;33994;50.998;5.864;2023-12-20T00:31:30;11.63;;;4.03;;
48203;SDS011;33994;50.998;5.864;2023-12-20T00:34:33;14.65;;;4.95;;
48203;SDS011;33994;50.998;5.864;2023-12-20T00:37:38;10.32;;;3.45;;
48203;SDS011;33994;50.998;5.864;2023-12-20T00:40:41;14.32;;;2.83;;
48203;SDS011;33994;50.998;5.864;2023-12-20T00:43:45;8.45;;;2.30;;
48203;SDS011;33994;50.998;5.864;2023-12-20T00:46:48;11.32;;;2.50;;
48203;SDS011;33994;50.998;5.864;2023-12-20T00:49:51;16.38;;;2.95;;
48203;SDS011;33994;50.998;5.864;2023-12-20T00:52:55;16.67;;;3.15;;
48203;SDS011;33994;50.998;5.864;2023-12-20T00:55:59;12.70;;;2.72;;
48203;SDS011;33994;50.998;5.864;2023-12-20T00:59:02;15.00;;;2.65;;
48203;SDS011;33994;50.998;5.864;2023-12-20T01:02:05;9.55;;;2.33;;
48203;SDS011;33994;50.998;5.864;2023-12-20T01:05:08;13.43;;;2.10;;
48203;SDS011;33994;50.998;5.864;2023-12-20T01:08:13;19.35;;;2.17;;
48203;SDS011;33994;50.998;5.864;2023-12-20T01:11:16;13.23;;;2.15;;
48203;SDS011;33994;50.998;5.864;2023-12-20T01:14:19;11.07;;;2.03;;
48203;SDS011;33994;50.998;5.864;2023-12-20T01:17:22;8.93;;;1.70;;
48203;SDS011;33994;50.998;5.864;2023-12-20T01:20:26;11.30;;;2.08;;
48203;SDS011;33994;50.998;5.864;2023-12-20T01:23:30;12.93;;;2.33;;
48203;SDS011;33994;50.998;5.864;2023-12-20T01:26:33;11.13;;;2.10;;
48203;SDS011;33994;50.998;5.864;2023-12-20T01:29:37;16.90;;;2.10;;
48203;SDS011;33994;50.998;5.864;2023-12-20T01:32:40;13.00;;;1.92;;
48203;SDS011;33994;50.998;5.864;2023-12-20T01:35:43;14.75;;;2.53;;
48203;SDS011;33994;50.998;5.864;2023-12-20T01:38:48;16.25;;;2.45;;
48203;SDS011;33994;50.998;5.864;2023-12-20T01:41:51;11.27;;;2.20;;
48203;SDS011;33994;50.998;5.864;2023-12-20T01:44:54;13.40;;;2.67;;
48203;SDS011;33994;50.998;5.864;2023-12-20T01:47:57;11.07;;;2.63;;
48203;SDS011;33994;50.998;5.864;2023-12-20T01:51:02;11.80;;;2.65;;
48203;SDS011;33994;50.998;5.864;2023-12-20T01:54:07;19.55;;;2.60;;
48203;SDS011;33994;50.998;5.864;2023-12-20T01:57:10;14.43;;;2.40;;
48203;SDS011;33994;50.998;5.864;2023-12-20T02:00:14;14.30;;;2.30;;
48203;SDS011;33994;50.998;5.864;2023-12-20T02:03:17;13.45;;;2.45;;
48203;SDS011;33994;50.998;5.864;2023-12-20T02:06:21;6.93;;;2.00;;
48203;SDS011;33994;50.998;5.864;2023-12-20T02:09:27;12.25;;;2.38;;
48203;SDS011;33994;50.998;5.864;2023-12-20T02:12:32;9.60;;;2.65;;
48203;SDS011;33994;50.998;5.864;2023-12-20T02:15:35;14.52;;;2.50;;
48203;SDS011;33994;50.998;5.864;2023-12-20T02:18:38;10.85;;;2.63;;
48203;SDS011;33994;50.998;5.864;2023-12-20T02:21:43;11.32;;;2.40;;
48203;SDS011;33994;50.998;5.864;2023-12-20T02:24:46;13.13;;;3.65;;
48203;SDS011;33994;50.998;5.864;2023-12-20T02:27:49;14.40;;;2.60;;
48203;SDS011;33994;50.998;5.864;2023-12-20T02:30:53;12.90;;;2.58;;
48203;SDS011;33994;50.998;5.864;2023-12-20T02:33:56;19.17;;;2.80;;
48203;SDS011;33994;50.998;5.864;2023-12-20T02:37:01;13.73;;;3.00;;
48203;SDS011;33994;50.998;5.864;2023-12-20T02:40:05;13.43;;;3.17;;
48203;SDS011;33994;50.998;5.864;2023-12-20T02:43:09;19.88;;;3.63;;
48203;SDS011;33994;50.998;5.864;2023-12-20T02:46:13;14.95;;;3.45;;
48203;SDS011;33994;50.998;5.864;2023-12-20T02:49:18;13.85;;;3.60;;
48203;SDS011;33994;50.998;5.864;2023-12-20T02:52:23;13.65;;;3.42;;
48203;SDS011;33994;50.998;5.864;2023-12-20T02:55:26;15.13;;;4.18;;
48203;SDS011;33994;50.998;5.864;2023-12-20T02:58:30;19.08;;;3.80;;
48203;SDS011;33994;50.998;5.864;2023-12-20T03:01:33;10.43;;;3.70;;
48203;SDS011;33994;50.998;5.864;2023-12-20T03:04:36;13.50;;;3.72;;
48203;SDS011;33994;50.998;5.864;2023-12-20T03:07:41;13.90;;;3.70;;
48203;SDS011;33994;50.998;5.864;2023-12-20T03:10:44;23.92;;;5.68;;
48203;SDS011;33994;50.998;5.864;2023-12-20T03:13:47;12.68;;;3.80;;
48203;SDS011;33994;50.998;5.864;2023-12-20T03:16:50;11.43;;;4.20;;
48203;SDS011;33994;50.998;5.864;2023-12-20T03:19:53;17.38;;;4.20;;
48203;SDS011;33994;50.998;5.864;2023-12-20T03:22:58;12.00;;;4.13;;
48203;SDS011;33994;50.998;5.864;2023-12-20T03:26:01;19.98;;;6.22;;
48203;SDS011;33994;50.998;5.864;2023-12-20T03:29:04;17.35;;;4.82;;
48203;SDS011;33994;50.998;5.864;2023-12-20T03:32:07;15.48;;;5.05;;
48203;SDS011;33994;50.998;5.864;2023-12-20T03:35:11;18.65;;;4.75;;
48203;SDS011;33994;50.998;5.864;2023-12-20T03:38:16;16.38;;;4.70;;
48203;SDS011;33994;50.998;5.864;2023-12-20T03:41:19;13.05;;;4.15;;
48203;SDS011;33994;50.998;5.864;2023-12-20T03:44:22;15.02;;;4.43;;
48203;SDS011;33994;50.998;5.864;2023-12-20T03:47:25;16.85;;;4.22;;
48203;SDS011;33994;50.998;5.864;2023-12-20T03:50:28;13.57;;;4.00;;
48203;SDS011;33994;50.998;5.864;2023-12-20T03:53:33;13.23;;;3.67;;
48203;SDS011;33994;50.998;5.864;2023-12-20T03:58:58;14.27;;;2.97;;
48203;SDS011;33994;50.998;5.864;2023-12-20T04:02:01;16.13;;;3.78;;
48203;SDS011;33994;50.998;5.864;2023-12-20T04:05:04;11.82;;;3.38;;
48203;SDS011;33994;50.998;5.864;2023-12-20T04:08:09;19.05;;;4.38;;
48203;SDS011;33994;50.998;5.864;2023-12-20T04:11:12;11.35;;;2.75;;
48203;SDS011;33994;50.998;5.864;2023-12-20T04:14:17;12.10;;;3.40;;
48203;SDS011;33994;50.998;5.864;2023-12-20T04:17:20;19.70;;;3.55;;
48203;SDS011;33994;50.998;5.864;2023-12-20T04:20:23;14.98;;;3.63;;
48203;SDS011;33994;50.998;5.864;2023-12-20T04:23:26;20.17;;;3.55;;
48203;SDS011;33994;50.998;5.864;2023-12-20T04:26:29;12.48;;;4.05;;
48203;SDS011;33994;50.998;5.864;2023-12-20T04:29:34;12.15;;;3.63;;
48203;SDS011;33994;50.998;5.864;2023-12-20T04:32:37;14.60;;;3.47;;
48203;SDS011;33994;50.998;5.864;2023-12-20T04:35:41;13.15;;;3.30;;
48203;SDS011;33994;50.998;5.864;2023-12-20T04:38:44;20.65;;;4.88;;
48203;SDS011;33994;50.998;5.864;2023-12-20T04:41:48;17.02;;;3.60;;
48203;SDS011;33994;50.998;5.864;2023-12-20T04:44:53;20.70;;;5.28;;
48203;SDS011;33994;50.998;5.864;2023-12-20T04:47:56;22.27;;;4.95;;
48203;SDS011;33994;50.998;5.864;2023-12-20T04:50:59;16.15;;;4.57;;
48203;SDS011;33994;50.998;5.864;2023-12-20T04:54:02;24.15;;;5.18;;
48203;SDS011;33994;50.998;5.864;2023-12-20T04:57:05;24.45;;;5.13;;
48203;SDS011;33994;50.998;5.864;2023-12-20T05:00:10;13.15;;;4.20;;
48203;SDS011;33994;50.998;5.864;2023-12-20T05:03:14;14.73;;;5.07;;
48203;SDS011;33994;50.998;5.864;2023-12-20T05:06:17;13.13;;;4.00;;
48203;SDS011;33994;50.998;5.864;2023-12-20T05:09:21;17.92;;;4.32;;
48203;SDS011;33994;50.998;5.864;2023-12-20T05:12:24;16.15;;;3.90;;
48203;SDS011;33994;50.998;5.864;2023-12-20T05:15:28;18.40;;;3.92;;
48203;SDS011;33994;50.998;5.864;2023-12-20T05:18:31;19.23;;;3.70;;
48203;SDS011;33994;50.998;5.864;2023-12-20T05:21:35;16.35;;;3.47;;
48203;SDS011;33994;50.998;5.864;2023-12-20T05:24:38;15.43;;;4.13;;
48203;SDS011;33994;50.998;5.864;2023-12-20T05:27:41;19.65;;;3.63;;
48203;SDS011;33994;50.998;5.864;2023-12-20T05:30:46;22.80;;;4.10;;
48203;SDS011;33994;50.998;5.864;2023-12-20T05:33:49;14.68;;;3.60;;
48203;SDS011;33994;50.998;5.864;2023-12-20T05:36:53;18.65;;;4.90;;
48203;SDS011;33994;50.998;5.864;2023-12-20T05:39:56;24.25;;;4.75;;
48203;SDS011;33994;50.998;5.864;2023-12-20T05:42:59;14.40;;;4.03;;
48203;SDS011;33994;50.998;5.864;2023-12-20T05:46:04;18.95;;;3.72;;
48203;SDS011;33994;50.998;5.864;2023-12-20T05:49:07;21.77;;;3.83;;
48203;SDS011;33994;50.998;5.864;2023-12-20T05:52:10;16.13;;;3.35;;
48203;SDS011;33994;50.998;5.864;2023-12-20T05:55:14;11.05;;;2.53;;
48203;SDS011;33994;50.998;5.864;2023-12-20T05:58:17;16.02;;;3.55;;
48203;SDS011;33994;50.998;5.864;2023-12-20T06:01:22;11.43;;;3.72;;
48203;SDS011;33994;50.998;5.864;2023-12-20T06:04:25;12.15;;;3.20;;
48203;SDS011;33994;50.998;5.864;2023-12-20T06:07:28;14.38;;;3.30;;
48203;SDS011;33994;50.998;5.864;2023-12-20T06:10:31;15.75;;;3.90;;
48203;SDS011;33994;50.998;5.864;2023-12-20T06:13:34;17.80;;;4.28;;
48203;SDS011;33994;50.998;5.864;2023-12-20T06:16:38;16.02;;;5.00;;
48203;SDS011;33994;50.998;5.864;2023-12-20T06:19:42;16.65;;;3.63;;
48203;SDS011;33994;50.998;5.864;2023-12-20T06:22:45;13.82;;;4.47;;
48203;SDS011;33994;50.998;5.864;2023-12-20T06:25:48;18.10;;;5.88;;
48203;SDS011;33994;50.998;5.864;2023-12-20T06:28:51;22.38;;;4.70;;
48203;SDS011;33994;50.998;5.864;2023-12-20T06:31:56;13.05;;;4.47;;
48203;SDS011;33994;50.998;5.864;2023-12-20T06:34:59;20.05;;;5.78;;
48203;SDS011;33994;50.998;5.864;2023-12-20T06:38:02;17.23;;;5.07;;
48203;SDS011;33994;50.998;5.864;2023-12-20T06:41:05;18.48;;;4.82;;
48203;SDS011;33994;50.998;5.864;2023-12-20T06:44:08;16.75;;;5.18;;
48203;SDS011;33994;50.998;5.864;2023-12-20T06:47:13;19.83;;;4.68;;
48203;SDS011;33994;50.998;5.864;2023-12-20T06:50:16;21.92;;;4.13;;
48203;SDS011;33994;50.998;5.864;2023-12-20T06:53:19;16.65;;;4.50;;
48203;SDS011;33994;50.998;5.864;2023-12-20T06:56:23;16.33;;;4.95;;
48203;SDS011;33994;50.998;5.864;2023-12-20T06:59:26;15.15;;;4.00;;
48203;SDS011;33994;50.998;5.864;2023-12-20T07:02:31;21.05;;;4.43;;
48203;SDS011;33994;50.998;5.864;2023-12-20T07:05:34;15.95;;;4.93;;
48203;SDS011;33994;50.998;5.864;2023-12-20T07:08:37;15.38;;;4.20;;
48203;SDS011;33994;50.998;5.864;2023-12-20T07:11:40;18.02;;;4.50;;
48203;SDS011;33994;50.998;5.864;2023-12-20T07:14:43;13.20;;;4.47;;
48203;SDS011;33994;50.998;5.864;2023-12-20T07:17:47;24.00;;;5.22;;
48203;SDS011;33994;50.998;5.864;2023-12-20T07:20:51;17.92;;;4.60;;
48203;SDS011;33994;50.998;5.864;2023-12-20T07:23:54;16.20;;;4.80;;
48203;SDS011;33994;50.998;5.864;2023-12-20T07:26:57;19.38;;;4.80;;
48203;SDS011;33994;50.998;5.864;2023-12-20T07:30:00;11.52;;;4.07;;
48203;SDS011;33994;50.998;5.864;2023-12-20T07:33:05;17.15;;;4.22;;
48203;SDS011;33994;50.998;5.864;2023-12-20T07:36:08;13.00;;;4.03;;
48203;SDS011;33994;50.998;5.864;2023-12-20T07:39:11;18.73;;;4.53;;
48203;SDS011;33994;50.998;5.864;2023-12-20T07:42:14;16.35;;;4.50;;
48203;SDS011;33994;50.998;5.864;2023-12-20T07:45:18;16.95;;;4.72;;
48203;SDS011;33994;50.998;5.864;2023-12-20T07:48:22;15.20;;;4.47;;
48203;SDS011;33994;50.998;5.864;2023-12-20T07:51:25;18.08;;;3.60;;
48203;SDS011;33994;50.998;5.864;2023-12-20T07:54:28;17.35;;;4.50;;
48203;SDS011;33994;50.998;5.864;2023-12-20T07:57:32;18.70;;;4.60;;
48203;SDS011;33994;50.998;5.864;2023-12-20T08:00:35;21.15;;;4.70;;
48203;SDS011;33994;50.998;5.864;2023-12-20T08:03:39;21.50;;;5.38;;
48203;SDS011;33994;50.998;5.864;2023-12-20T08:06:43;19.52;;;5.13;;
48203;SDS011;33994;50.998;5.864;2023-12-20T08:09:46;21.85;;;5.30;;
48203;SDS011;33994;50.998;5.864;2023-12-20T08:12:49;24.02;;;5.13;;
48203;SDS011;33994;50.998;5.864;2023-12-20T08:15:52;19.63;;;4.55;;
48203;SDS011;33994;50.998;5.864;2023-12-20T08:18:57;18.48;;;4.43;;
48203;SDS011;33994;50.998;5.864;2023-12-20T08:22:00;18.85;;;4.07;;
48203;SDS011;33994;50.998;5.864;2023-12-20T08:25:04;21.48;;;4.43;;
48203;SDS011;33994;50.998;5.864;2023-12-20T08:28:07;18.27;;;4.38;;
48203;SDS011;33994;50.998;5.864;2023-12-20T08:31:13;16.52;;;3.67;;
48203;SDS011;33994;50.998;5.864;2023-12-20T08:34:18;25.92;;;4.35;;
48203;SDS011;33994;50.998;5.864;2023-12-20T08:37:21;22.98;;;4.03;;
48203;SDS011;33994;50.998;5.864;2023-12-20T08:40:24;21.15;;;4.07;;
48203;SDS011;33994;50.998;5.864;2023-12-20T08:43:27;25.25;;;4.85;;
48203;SDS011;33994;50.998;5.864;2023-12-20T08:46:30;16.27;;;4.00;;
48203;SDS011;33994;50.998;5.864;2023-12-20T08:49:35;18.52;;;4.25;;
48203;SDS011;33994;50.998;5.864;2023-12-20T08:52:38;14.05;;;4.22;;
48203;SDS011;33994;50.998;5.864;2023-12-20T08:55:41;17.20;;;4.55;;
48203;SDS011;33994;50.998;5.864;2023-12-20T08:58:45;17.05;;;4.35;;
48203;SDS011;33994;50.998;5.864;2023-12-20T09:01:48;27.08;;;5.32;;
48203;SDS011;33994;50.998;5.864;2023-12-20T09:04:53;11.75;;;3.45;;
48203;SDS011;33994;50.998;5.864;2023-12-20T09:07:56;18.80;;;4.03;;
48203;SDS011;33994;50.998;5.864;2023-12-20T09:10:59;15.65;;;4.40;;
48203;SDS011;33994;50.998;5.864;2023-12-20T09:14:03;16.75;;;3.38;;
48203;SDS011;33994;50.998;5.864;2023-12-20T09:17:06;26.38;;;4.45;;
48203;SDS011;33994;50.998;5.864;2023-12-20T09:20:10;22.55;;;3.92;;
48203;SDS011;33994;50.998;5.864;2023-12-20T09:23:13;35.47;;;5.70;;
48203;SDS011;33994;50.998;5.864;2023-12-20T09:26:16;25.58;;;7.03;;
48203;SDS011;33994;50.998;5.864;2023-12-20T09:29:19;20.10;;;4.05;;
48203;SDS011;33994;50.998;5.864;2023-12-20T09:32:22;18.42;;;5.72;;
48203;SDS011;33994;50.998;5.864;2023-12-20T09:35:27;25.02;;;4.40;;
48203;SDS011;33994;50.998;5.864;2023-12-20T09:38:30;17.40;;;4.40;;
48203;SDS011;33994;50.998;5.864;2023-12-20T09:41:35;14.38;;;3.60;;
48203;SDS011;33994;50.998;5.864;2023-12-20T09:44:43;17.48;;;3.85;;
48203;SDS011;33994;50.998;5.864;2023-12-20T09:47:46;17.38;;;3.60;;
48203;SDS011;33994;50.998;5.864;2023-12-20T09:50:52;15.73;;;3.85;;
48203;SDS011;33994;50.998;5.864;2023-12-20T09:53:55;18.08;;;3.55;;
48203;SDS011;33994;50.998;5.864;2023-12-20T09:57:00;13.55;;;3.17;;
48203;SDS011;33994;50.998;5.864;2023-12-20T10:00:03;17.08;;;3.45;;
48203;SDS011;33994;50.998;5.864;2023-12-20T10:03:07;19.15;;;3.47;;
48203;SDS011;33994;50.998;5.864;2023-12-20T10:06:12;13.05;;;3.20;;
48203;SDS011;33994;50.998;5.864;2023-12-20T10:09:15;15.60;;;3.80;;
48203;SDS011;33994;50.998;5.864;2023-12-20T10:12:18;18.20;;;3.67;;
48203;SDS011;33994;50.998;5.864;2023-12-20T10:15:22;18.20;;;3.25;;
48203;SDS011;33994;50.998;5.864;2023-12-20T10:18:25;16.70;;;4.07;;
48203;SDS011;33994;50.998;5.864;2023-12-20T10:21:32;19.58;;;3.38;;
48203;SDS011;33994;50.998;5.864;2023-12-20T10:24:35;21.83;;;4.63;;
48203;SDS011;33994;50.998;5.864;2023-12-20T10:27:38;19.38;;;4.68;;
48203;SDS011;33994;50.998;5.864;2023-12-20T10:30:42;15.30;;;3.75;;
48203;SDS011;33994;50.998;5.864;2023-12-20T10:33:45;14.25;;;3.08;;
48203;SDS011;33994;50.998;5.864;2023-12-20T10:36:50;22.63;;;3.63;;
48203;SDS011;33994;50.998;5.864;2023-12-20T10:39:54;22.70;;;4.35;;
48203;SDS011;33994;50.998;5.864;2023-12-20T10:42:58;14.40;;;3.13;;
48203;SDS011;33994;50.998;5.864;2023-12-20T10:46:02;16.15;;;3.47;;
48203;SDS011;33994;50.998;5.864;2023-12-20T10:49:06;19.77;;;4.05;;
48203;SDS011;33994;50.998;5.864;2023-12-20T10:52:12;13.63;;;3.50;;
48203;SDS011;33994;50.998;5.864;2023-12-20T10:55:15;15.60;;;4.28;;
48203;SDS011;33994;50.998;5.864;2023-12-20T10:58:19;14.98;;;3.90;;
48203;SDS011;33994;50.998;5.864;2023-12-20T11:01:23;28.70;;;5.90;;
48203;SDS011;33994;50.998;5.864;2023-12-20T11:04:28;20.10;;;4.43;;
48203;SDS011;33994;50.998;5.864;2023-12-20T11:07:41;20.95;;;4.45;;
48203;SDS011;33994;50.998;5.864;2023-12-20T11:10:48;23.77;;;4.22;;
48203;SDS011;33994;50.998;5.864;2023-12-20T11:13:59;20.92;;;4.75;;
48203;SDS011;33994;50.998;5.864;2023-12-20T11:17:06;17.38;;;4.47;;
48203;SDS011;33994;50.998;5.864;2023-12-20T11:20:10;16.63;;;4.10;;
48203;SDS011;33994;50.998;5.864;2023-12-20T11:23:15;16.42;;;3.92;;
48203;SDS011;33994;50.998;5.864;2023-12-20T11:26:22;17.45;;;3.85;;
48203;SDS011;33994;50.998;5.864;2023-12-20T11:29:29;17.83;;;4.32;;
48203;SDS011;33994;50.998;5.864;2023-12-20T11:32:33;19.02;;;4.90;;
48203;SDS011;33994;50.998;5.864;2023-12-20T11:35:37;15.77;;;3.22;;
48203;SDS011;33994;50.998;5.864;2023-12-20T11:38:50;16.83;;;3.90;;
48203;SDS011;33994;50.998;5.864;2023-12-20T11:42:03;21.73;;;4.40;;
48203;SDS011;33994;50.998;5.864;2023-12-20T11:45:08;11.85;;;3.50;;
48203;SDS011;33994;50.998;5.864;2023-12-20T11:48:12;15.82;;;3.90;;
48203;SDS011;33994;50.998;5.864;2023-12-20T11:51:16;16.42;;;4.22;;
48203;SDS011;33994;50.998;5.864;2023-12-20T11:54:20;15.57;;;4.07;;
48203;SDS011;33994;50.998;5.864;2023-12-20T11:57:24;18.70;;;4.80;;
48203;SDS011;33994;50.998;5.864;2023-12-20T12:00:28;19.13;;;4.10;;
48203;SDS011;33994;50.998;5.864;2023-12-20T12:03:31;14.02;;;3.63;;
48203;SDS011;33994;50.998;5.864;2023-12-20T12:06:34;21.38;;;4.07;;
48203;SDS011;33994;50.998;5.864;2023-12-20T12:09:39;14.90;;;3.50;;
48203;SDS011;33994;50.998;5.864;2023-12-20T12:12:42;19.10;;;3.75;;
48203;SDS011;33994;50.998;5.864;2023-12-20T12:15:45;16.08;;;5.18;;
48203;SDS011;33994;50.998;5.864;2023-12-20T12:18:54;18.13;;;4.18;;
48203;SDS011;33994;50.998;5.864;2023-12-20T12:22:04;14.30;;;3.47;;
48203;SDS011;33994;50.998;5.864;2023-12-20T12:25:12;13.68;;;3.40;;
48203;SDS011;33994;50.998;5.864;2023-12-20T12:31:18;18.63;;;5.28;;
48203;SDS011;33994;50.998;5.864;2023-12-20T12:34:21;28.30;;;4.35;;
48203;SDS011;33994;50.998;5.864;2023-12-20T12:37:24;25.77;;;4.70;;
48203;SDS011;33994;50.998;5.864;2023-12-20T12:40:29;17.77;;;4.30;;
48203;SDS011;33994;50.998;5.864;2023-12-20T12:43:32;18.65;;;4.10;;
48203;SDS011;33994;50.998;5.864;2023-12-20T12:46:35;12.65;;;4.00;;
48203;SDS011;33994;50.998;5.864;2023-12-20T12:49:40;15.18;;;3.83;;
48203;SDS011;33994;50.998;5.864;2023-12-20T12:52:43;15.60;;;4.20;;
48203;SDS011;33994;50.998;5.864;2023-12-20T12:55:47;15.70;;;3.90;;
48203;SDS011;33994;50.998;5.864;2023-12-20T12:58:51;13.40;;;4.35;;
48203;SDS011;33994;50.998;5.864;2023-12-20T13:01:54;17.88;;;4.57;;
48203;SDS011;33994;50.998;5.864;2023-12-20T13:04:57;20.02;;;5.00;;
48203;SDS011;33994;50.998;5.864;2023-12-20T13:08:00;14.52;;;5.40;;
48203;SDS011;33994;50.998;5.864;2023-12-20T13:11:04;16.30;;;5.13;;
48203;SDS011;33994;50.998;5.864;2023-12-20T13:14:08;18.10;;;5.20;;
48203;SDS011;33994;50.998;5.864;2023-12-20T13:17:11;12.35;;;4.97;;
48203;SDS011;33994;50.998;5.864;2023-12-20T13:20:14;14.10;;;4.97;;
48203;SDS011;33994;50.998;5.864;2023-12-20T13:23:17;18.25;;;5.55;;
48203;SDS011;33994;50.998;5.864;2023-12-20T13:26:22;19.13;;;5.97;;
48203;SDS011;33994;50.998;5.864;2023-12-20T13:29:25;18.55;;;5.00;;
48203;SDS011;33994;50.998;5.864;2023-12-20T13:32:28;18.65;;;5.22;;
48203;SDS011;33994;50.998;5.864;2023-12-20T13:35:31;13.98;;;5.03;;
48203;SDS011;33994;50.998;5.864;2023-12-20T13:38:34;14.45;;;4.00;;
48203;SDS011;33994;50.998;5.864;2023-12-20T13:41:39;18.10;;;6.03;;
48203;SDS011;33994;50.998;5.864;2023-12-20T13:44:42;16.33;;;5.10;;
48203;SDS011;33994;50.998;5.864;2023-12-20T13:47:45;21.73;;;5.35;;
48203;SDS011;33994;50.998;5.864;2023-12-20T13:50:48;27.00;;;5.50;;
48203;SDS011;33994;50.998;5.864;2023-12-20T13:53:52;14.57;;;4.57;;
48203;SDS011;33994;50.998;5.864;2023-12-20T13:56:56;20.02;;;4.78;;
48203;SDS011;33994;50.998;5.864;2023-12-20T13:59:59;16.55;;;5.05;;
48203;SDS011;33994;50.998;5.864;2023-12-20T14:03:03;22.67;;;5.60;;
48203;SDS011;33994;50.998;5.864;2023-12-20T14:06:06;18.55;;;4.22;;
48203;SDS011;33994;50.998;5.864;2023-12-20T14:09:10;20.45;;;4.00;;
48203;SDS011;33994;50.998;5.864;2023-12-20T14:12:14;18.65;;;5.18;;
48203;SDS011;33994;50.998;5.864;2023-12-20T14:15:17;17.60;;;4.50;;
48203;SDS011;33994;50.998;5.864;2023-12-20T14:18:20;16.73;;;4.07;;
48203;SDS011;33994;50.998;5.864;2023-12-20T14:21:24;20.10;;;5.10;;
48203;SDS011;33994;50.998;5.864;2023-12-20T14:24:27;16.55;;;4.90;;
48203;SDS011;33994;50.998;5.864;2023-12-20T14:27:31;29.05;;;6.05;;
48203;SDS011;33994;50.998;5.864;2023-12-20T14:30:35;23.85;;;4.55;;
48203;SDS011;33994;50.998;5.864;2023-12-20T14:33:38;12.55;;;5.25;;
48203;SDS011;33994;50.998;5.864;2023-12-20T14:36:41;16.92;;;4.80;;
48203;SDS011;33994;50.998;5.864;2023-12-20T14:39:44;19.27;;;4.95;;
48203;SDS011;33994;50.998;5.864;2023-12-20T14:42:49;18.67;;;5.05;;
48203;SDS011;33994;50.998;5.864;2023-12-20T14:45:52;15.32;;;4.70;;
48203;SDS011;33994;50.998;5.864;2023-12-20T14:48:55;16.88;;;4.70;;
48203;SDS011;33994;50.998;5.864;2023-12-20T14:51:58;18.60;;;5.35;;
48203;SDS011;33994;50.998;5.864;2023-12-20T14:55:01;20.40;;;5.25;;
48203;SDS011;33994;50.998;5.864;2023-12-20T14:58:06;16.63;;;6.72;;
48203;SDS011;33994;50.998;5.864;2023-12-20T15:01:09;17.45;;;4.65;;
48203;SDS011;33994;50.998;5.864;2023-12-20T15:04:12;14.90;;;5.25;;
48203;SDS011;33994;50.998;5.864;2023-12-20T15:07:16;20.80;;;6.05;;
48203;SDS011;33994;50.998;5.864;2023-12-20T15:10:19;15.93;;;5.10;;
48203;SDS011;33994;50.998;5.864;2023-12-20T15:13:24;17.02;;;5.50;;
48203;SDS011;33994;50.998;5.864;2023-12-20T15:16:27;21.58;;;5.82;;
48203;SDS011;33994;50.998;5.864;2023-12-20T15:19:30;16.08;;;5.80;;
48203;SDS011;33994;50.998;5.864;2023-12-20T15:22:34;16.40;;;5.32;;
48203;SDS011;33994;50.998;5.864;2023-12-20T15:25:37;25.83;;;5.25;;
48203;SDS011;33994;50.998;5.864;2023-12-20T15:28:41;14.45;;;4.97;;
48203;SDS011;33994;50.998;5.864;2023-12-20T15:31:46;18.10;;;5.30;;
48203;SDS011;33994;50.998;5.864;2023-12-20T15:34:50;15.02;;;4.88;;
48203;SDS011;33994;50.998;5.864;2023-12-20T15:37:53;18.88;;;4.90;;
48203;SDS011;33994;50.998;5.864;2023-12-20T15:40:56;16.23;;;5.32;;
48203;SDS011;33994;50.998;5.864;2023-12-20T15:44:01;18.75;;;5.97;;
48203;SDS011;33994;50.998;5.864;2023-12-20T15:47:04;16.55;;;4.65;;
48203;SDS011;33994;50.998;5.864;2023-12-20T15:50:07;16.90;;;4.50;;
48203;SDS011;33994;50.998;5.864;2023-12-20T15:53:11;20.50;;;4.43;;
48203;SDS011;33994;50.998;5.864;2023-12-20T15:56:14;18.23;;;5.22;;
48203;SDS011;33994;50.998;5.864;2023-12-20T15:59:19;14.50;;;4.70;;
48203;SDS011;33994;50.998;5.864;2023-12-20T16:02:22;20.13;;;4.15;;
48203;SDS011;33994;50.998;5.864;2023-12-20T16:05:31;14.93;;;4.35;;
48203;SDS011;33994;50.998;5.864;2023-12-20T16:08:34;11.88;;;3.75;;
48203;SDS011;33994;50.998;5.864;2023-12-20T16:11:37;11.05;;;3.83;;
48203;SDS011;33994;50.998;5.864;2023-12-20T16:14:42;9.40;;;3.25;;
48203;SDS011;33994;50.998;5.864;2023-12-20T16:17:45;17.73;;;3.50;;
48203;SDS011;33994;50.998;5.864;2023-12-20T16:20:48;16.02;;;3.75;;
48203;SDS011;33994;50.998;5.864;2023-12-20T16:23:51;14.02;;;3.60;;
48203;SDS011;33994;50.998;5.864;2023-12-20T16:26:55;17.50;;;3.75;;
48203;SDS011;33994;50.998;5.864;2023-12-20T16:29:59;14.40;;;3.42;;
48203;SDS011;33994;50.998;5.864;2023-12-20T16:33:03;13.60;;;3.83;;
48203;SDS011;33994;50.998;5.864;2023-12-20T16:36:06;16.80;;;5.07;;
48203;SDS011;33994;50.998;5.864;2023-12-20T16:39:10;11.23;;;4.05;;
48203;SDS011;33994;50.998;5.864;2023-12-20T16:42:13;18.38;;;4.22;;
48203;SDS011;33994;50.998;5.864;2023-12-20T16:45:17;14.93;;;4.45;;
48203;SDS011;33994;50.998;5.864;2023-12-20T16:48:21;16.92;;;4.65;;
48203;SDS011;33994;50.998;5.864;2023-12-20T16:51:24;15.05;;;4.03;;
48203;SDS011;33994;50.998;5.864;2023-12-20T16:54:27;13.20;;;3.85;;
48203;SDS011;33994;50.998;5.864;2023-12-20T16:57:30;17.33;;;4.20;;
48203;SDS011;33994;50.998;5.864;2023-12-20T17:00:35;18.60;;;3.40;;
48203;SDS011;33994;50.998;5.864;2023-12-20T17:03:38;13.20;;;2.92;;
48203;SDS011;33994;50.998;5.864;2023-12-20T17:06:41;15.68;;;3.00;;
48203;SDS011;33994;50.998;5.864;2023-12-20T17:09:44;18.80;;;3.47;;
48203;SDS011;33994;50.998;5.864;2023-12-20T17:12:47;11.27;;;3.83;;
48203;SDS011;33994;50.998;5.864;2023-12-20T17:15:52;16.50;;;3.38;;
48203;SDS011;33994;50.998;5.864;2023-12-20T17:18:55;18.35;;;3.78;;
48203;SDS011;33994;50.998;5.864;2023-12-20T17:21:58;15.98;;;3.55;;
48203;SDS011;33994;50.998;5.864;2023-12-20T17:25:02;14.27;;;3.50;;
48203;SDS011;33994;50.998;5.864;2023-12-20T17:28:05;12.75;;;2.95;;
48203;SDS011;33994;50.998;5.864;2023-12-20T17:31:10;11.93;;;2.97;;
48203;SDS011;33994;50.998;5.864;2023-12-20T17:34:13;20.33;;;3.92;;
48203;SDS011;33994;50.998;5.864;2023-12-20T17:37:16;18.75;;;4.00;;
48203;SDS011;33994;50.998;5.864;2023-12-20T17:40:20;12.95;;;3.00;;
48203;SDS011;33994;50.998;5.864;2023-12-20T17:43:23;12.18;;;3.25;;
48203;SDS011;33994;50.998;5.864;2023-12-20T17:46:28;15.23;;;3.90;;
48203;SDS011;33994;50.998;5.864;2023-12-20T17:49:31;14.77;;;4.65;;
48203;SDS011;33994;50.998;5.864;2023-12-20T17:52:34;16.17;;;3.75;;
48203;SDS011;33994;50.998;5.864;2023-12-20T17:55:38;11.85;;;3.78;;
48203;SDS011;33994;50.998;5.864;2023-12-20T17:58:41;16.52;;;3.65;;
48203;SDS011;33994;50.998;5.864;2023-12-20T18:01:46;17.90;;;4.38;;
48203;SDS011;33994;50.998;5.864;2023-12-20T18:04:49;17.42;;;3.65;;
48203;SDS011;33994;50.998;5.864;2023-12-20T18:07:53;17.83;;;3.65;;
48203;SDS011;33994;50.998;5.864;2023-12-20T18:10:55;18.65;;;5.20;;
48203;SDS011;33994;50.998;5.864;2023-12-20T18:13:59;20.50;;;4.93;;